createdAt,value
2023-03-12T00:00:51.853Z,71.54
2023-03-12T00:03:18.276Z,71.51
2023-03-12T00:05:45.390Z,72.28
2023-03-12T00:08:12.921Z,72.18
2023-03-12T00:10:40.355Z,71.64
2023-03-12T00:13:07.095Z,71.32
2023-03-12T00:15:36.718Z,71.55
2023-03-12T00:18:03.072Z,71.56
2023-03-12T00:20:29.355Z,71.25
2023-03-12T00:22:55.672Z,70.68
2023-03-12T00:25:22.130Z,71.06
2023-03-12T00:27:48.750Z,70.61
2023-03-12T00:30:15.279Z,69.91
2023-03-12T00:32:41.626Z,71.08
2023-03-12T00:35:08.411Z,70.78
2023-03-12T00:37:36.972Z,71.14
2023-03-12T00:40:05.697Z,71.29
2023-03-12T00:42:32.645Z,71.97
2023-03-12T00:44:58.966Z,72.36
2023-03-12T00:47:25.328Z,72.83
2023-03-12T00:49:51.796Z,73.27
2023-03-12T00:52:18.215Z,72.08
2023-03-12T00:54:44.598Z,72.43
2023-03-12T00:57:10.979Z,72.01
2023-03-12T00:59:40.264Z,71.85
2023-03-12T01:02:08.158Z,73.15
2023-03-12T01:04:34.616Z,71.93
2023-03-12T01:07:07.480Z,71.67
2023-03-12T01:09:33.856Z,71.36
2023-03-12T01:12:00.180Z,71.20
2023-03-12T01:14:26.689Z,71.87
2023-03-12T01:16:53.120Z,71.54
2023-03-12T01:19:19.509Z,70.94
2023-03-12T01:21:45.803Z,70.12
2023-03-12T01:24:12.136Z,70.51
2023-03-12T01:26:38.460Z,70.52
2023-03-12T01:29:04.759Z,71.12
2023-03-12T01:31:31.166Z,71.24
2023-03-12T01:33:57.739Z,71.47
2023-03-12T01:36:26.573Z,71.76
2023-03-12T01:38:55.149Z,71.48
2023-03-12T01:41:23.566Z,72.37
2023-03-12T01:43:50.824Z,71.94
2023-03-12T01:46:38.936Z,71.60
2023-03-12T01:49:14.058Z,72.47
2023-03-12T01:51:50.080Z,72.18
2023-03-12T01:54:30.249Z,71.70
2023-03-12T01:56:56.957Z,72.13
2023-03-12T01:59:29.370Z,72.66
2023-03-12T02:01:55.773Z,72.45
2023-03-12T02:04:25.469Z,72.52
2023-03-12T02:07:03.847Z,71.84
2023-03-12T02:09:33.466Z,72.30
2023-03-12T02:12:00.167Z,72.56
2023-03-12T02:14:26.575Z,72.40
2023-03-12T02:16:54.250Z,72.38
2023-03-12T02:19:35.564Z,72.01
2023-03-12T02:22:01.872Z,71.93
2023-03-12T02:24:35.447Z,71.72
2023-03-12T02:27:02.863Z,72.14
2023-03-12T02:29:30.677Z,72.55
2023-03-12T02:32:00.412Z,71.96
2023-03-12T02:34:26.828Z,71.61
2023-03-12T02:36:53.192Z,72.23
2023-03-12T02:39:19.642Z,71.37
2023-03-12T02:41:53.722Z,71.84
2023-03-12T02:44:26.844Z,71.94
2023-03-12T02:46:55.770Z,71.92
2023-03-12T02:49:24.525Z,72.13
2023-03-12T02:51:51.219Z,71.28
2023-03-12T02:54:19.275Z,72.38
2023-03-12T02:56:46.288Z,71.64
2023-03-12T02:59:14.255Z,71.87
2023-03-12T03:01:41.321Z,71.84
2023-03-12T03:04:10.111Z,71.38
2023-03-12T03:06:39.399Z,71.31
2023-03-12T03:09:05.757Z,71.38
2023-03-12T03:11:32.312Z,71.15
2023-03-12T03:13:58.698Z,70.63
2023-03-12T03:16:25.113Z,70.63
2023-03-12T03:18:51.901Z,71.40
2023-03-12T03:21:18.505Z,71.17
2023-03-12T03:23:46.892Z,70.41
2023-03-12T03:26:14.800Z,69.73
2023-03-12T03:31:08.177Z,70.11
2023-03-12T03:33:36.416Z,70.22
2023-03-12T03:36:03.612Z,70.04
2023-03-12T03:38:31.867Z,70.02
2023-03-12T03:40:58.372Z,70.32
2023-03-12T03:43:25.195Z,70.38
2023-03-12T03:46:03.006Z,70.29
2023-03-12T03:48:29.883Z,70.10
2023-03-12T03:51:00.675Z,69.88
2023-03-12T03:53:26.980Z,69.40
2023-03-12T03:55:53.275Z,69.26
2023-03-12T03:58:19.571Z,70.14
2023-03-12T04:00:46.568Z,70.56
2023-03-12T04:03:13.867Z,70.25
2023-03-12T04:05:40.525Z,70.41
2023-03-12T04:08:07.425Z,69.84
2023-03-12T04:10:33.735Z,69.65
2023-03-12T04:13:00.101Z,69.84
2023-03-12T04:15:26.546Z,70.13
2023-03-12T04:17:52.850Z,69.58
2023-03-12T04:20:19.394Z,70.08
2023-03-12T04:22:45.702Z,69.78
2023-03-12T04:25:12.070Z,70.24
2023-03-12T04:27:38.415Z,70.15
2023-03-12T04:30:05.145Z,70.80
2023-03-12T04:32:31.587Z,70.54
2023-03-12T04:34:57.937Z,70.38
2023-03-12T04:37:24.307Z,70.13
2023-03-12T04:39:50.645Z,70.50
2023-03-12T04:42:16.969Z,71.11
2023-03-12T04:44:43.349Z,70.82
2023-03-12T04:47:09.651Z,70.07
2023-03-12T04:49:38.426Z,71.07
2023-03-12T04:52:05.022Z,70.87
2023-03-12T04:54:31.875Z,70.51
2023-03-12T04:56:58.201Z,70.53
2023-03-12T04:59:24.676Z,70.81
2023-03-12T05:01:51.691Z,71.60
2023-03-12T05:04:18.196Z,70.42
2023-03-12T05:06:44.549Z,70.90
2023-03-12T05:09:10.888Z,70.33
2023-03-12T05:11:39.595Z,69.75
2023-03-12T05:14:06.244Z,69.86
2023-03-12T05:16:32.696Z,69.75
2023-03-12T05:18:59.034Z,70.07
2023-03-12T05:21:25.365Z,70.21
2023-03-12T05:23:51.772Z,70.29
2023-03-12T05:26:20.376Z,69.23
2023-03-12T05:28:47.145Z,69.83
2023-03-12T05:31:14.356Z,69.40
2023-03-12T05:33:40.930Z,70.07
2023-03-12T05:36:08.116Z,70.47
2023-03-12T05:38:34.767Z,69.67
2023-03-12T05:41:01.152Z,70.19
2023-03-12T05:43:28.360Z,69.22
2023-03-12T05:45:58.464Z,69.44
2023-03-12T05:48:24.855Z,69.75
2023-03-12T05:50:51.152Z,69.37
2023-03-12T05:53:17.506Z,69.49
2023-03-12T05:55:43.868Z,69.21
2023-03-12T05:58:10.229Z,68.85
2023-03-12T06:00:38.071Z,69.74
2023-03-12T06:03:05.651Z,68.80
2023-03-12T06:05:34.267Z,69.13
2023-03-12T06:08:01.279Z,69.12
2023-03-12T06:10:28.248Z,69.01
2023-03-12T06:12:54.864Z,70.01
2023-03-12T06:15:21.464Z,69.99
2023-03-12T06:17:47.803Z,69.67
2023-03-12T06:20:14.269Z,68.95
2023-03-12T06:22:40.634Z,67.82
2023-03-12T06:25:07.290Z,63.14
2023-03-12T06:27:33.660Z,62.34
2023-03-12T06:29:59.981Z,62.12
2023-03-12T06:32:26.377Z,61.92
2023-03-12T06:34:52.738Z,62.71
2023-03-12T06:37:19.040Z,61.76
2023-03-12T06:39:45.346Z,61.49
2023-03-12T06:42:13.026Z,61.81
2023-03-12T06:44:39.316Z,61.95
2023-03-12T06:47:05.834Z,62.67
2023-03-12T06:49:33.273Z,63.78
2023-03-12T06:51:59.646Z,64.39
2023-03-12T06:54:26.072Z,64.22
2023-03-12T06:56:53.060Z,64.00
2023-03-12T06:59:21.581Z,64.03
2023-03-12T07:01:48.837Z,65.04
2023-03-12T07:04:15.168Z,65.08
2023-03-12T07:06:42.095Z,66.20
2023-03-12T07:09:08.490Z,67.21
2023-03-12T07:11:35.336Z,67.56
2023-03-12T07:14:01.818Z,67.65
2023-03-12T07:16:28.344Z,67.44
2023-03-12T07:18:55.332Z,67.40
2023-03-12T07:21:23.637Z,67.91
2023-03-12T07:23:50.621Z,68.74
2023-03-12T07:26:17.238Z,69.08
2023-03-12T07:28:43.576Z,69.98
2023-03-12T07:31:10.017Z,71.09
2023-03-12T07:33:36.488Z,71.64
2023-03-12T07:36:03.798Z,73.00
2023-03-12T07:38:30.348Z,74.30
2023-03-12T07:40:58.112Z,75.12
2023-03-12T07:43:25.114Z,75.07
2023-03-12T07:45:51.954Z,75.72
2023-03-12T07:48:21.705Z,77.64
2023-03-12T07:50:48.725Z,77.40
2023-03-12T07:53:15.175Z,77.92
2023-03-12T07:55:45.091Z,78.58
2023-03-12T07:58:12.972Z,77.15
2023-03-12T08:00:39.917Z,79.45
2023-03-12T08:03:06.467Z,78.52
2023-03-12T08:05:33.037Z,79.40
2023-03-12T08:07:59.409Z,79.64
2023-03-12T08:10:25.883Z,79.47
2023-03-12T08:12:52.316Z,79.46
2023-03-12T08:15:18.766Z,81.22
2023-03-12T08:17:45.359Z,80.40
2023-03-12T08:20:12.435Z,80.16
2023-03-12T08:22:39.811Z,80.16
2023-03-12T08:25:07.214Z,80.22
2023-03-12T08:27:33.920Z,79.94
2023-03-12T08:30:00.363Z,80.03
2023-03-12T08:32:26.982Z,80.39
2023-03-12T08:34:53.381Z,80.46
2023-03-12T08:37:19.692Z,80.85
2023-03-12T08:39:46.018Z,81.64
2023-03-12T08:42:12.345Z,81.89
2023-03-12T08:44:38.676Z,82.43
2023-03-12T08:47:05.082Z,82.44
2023-03-12T08:49:31.531Z,82.33
2023-03-12T08:51:57.877Z,82.71
2023-03-12T08:54:24.168Z,83.03
2023-03-12T08:56:52.218Z,82.69
2023-03-12T08:59:20.556Z,82.86
2023-03-12T09:01:47.632Z,82.62
2023-03-12T09:04:13.998Z,82.29
2023-03-12T09:06:41.064Z,82.41
2023-03-12T09:09:08.941Z,82.28
2023-03-12T09:11:39.565Z,82.44
2023-03-12T09:14:49.958Z,82.27
2023-03-12T09:16:52.247Z,81.73
2023-03-12T09:19:18.638Z,81.64
2023-03-12T09:21:45.005Z,81.75
2023-03-12T09:24:11.933Z,82.10
2023-03-12T09:26:38.231Z,81.35
2023-03-12T09:29:04.644Z,82.19
2023-03-12T09:31:31.143Z,81.80
2023-03-12T09:33:57.449Z,81.75
2023-03-12T09:36:23.738Z,81.36
2023-03-12T09:38:50.240Z,82.27
2023-03-12T09:41:28.829Z,81.87
2023-03-12T09:44:04.181Z,82.36
2023-03-12T09:46:39.128Z,82.15
2023-03-12T09:49:14.494Z,81.61
2023-03-12T09:51:54.009Z,81.78
2023-03-12T09:54:31.543Z,82.13
2023-03-12T09:57:03.362Z,81.65
2023-03-12T09:59:30.009Z,80.87
2023-03-12T10:02:00.133Z,81.12
2023-03-12T10:04:58.032Z,81.01
2023-03-12T10:07:50.331Z,81.33
2023-03-12T10:10:32.043Z,81.43
2023-03-12T10:13:17.857Z,81.30
2023-03-12T10:16:09.282Z,81.41
2023-03-12T10:18:46.247Z,81.05
2023-03-12T10:22:00.352Z,80.79
2023-03-12T10:24:35.533Z,81.13
2023-03-12T10:27:04.112Z,80.63
2023-03-12T10:29:35.431Z,80.60
2023-03-12T10:32:16.432Z,80.56
2023-03-12T10:34:51.840Z,79.85
2023-03-12T10:37:26.070Z,80.18
2023-03-12T10:39:55.350Z,80.04
2023-03-12T10:42:24.561Z,79.79
2023-03-12T10:45:35.836Z,79.45
2023-03-12T10:48:07.012Z,79.30
2023-03-12T10:50:36.136Z,79.35
2023-03-12T10:53:22.777Z,79.96
2023-03-12T10:56:10.995Z,80.31
2023-03-12T10:58:45.932Z,80.05
2023-03-12T11:01:15.413Z,79.64
2023-03-12T11:03:45.944Z,79.94
2023-03-12T11:06:25.740Z,79.91
2023-03-12T11:09:17.763Z,79.33
2023-03-12T11:11:49.145Z,79.99
2023-03-12T11:14:21.645Z,79.11
2023-03-12T11:16:55.828Z,78.54
2023-03-12T11:19:33.898Z,78.46
2023-03-12T11:22:03.366Z,77.90
2023-03-12T11:24:30.484Z,77.69
2023-03-12T11:27:05.247Z,78.43
2023-03-12T11:29:40.407Z,77.91
2023-03-12T11:32:16.036Z,77.94
2023-03-12T11:34:42.952Z,76.90
2023-03-12T11:37:40.607Z,76.59
2023-03-12T11:40:36.694Z,77.69
2023-03-12T11:43:43.311Z,78.85
2023-03-12T11:46:20.654Z,79.11
2023-03-12T11:49:09.463Z,77.84
2023-03-12T11:51:59.899Z,77.57
2023-03-12T11:54:41.424Z,78.45
2023-03-12T11:57:21.859Z,78.19
2023-03-12T12:00:00.402Z,78.28
2023-03-12T12:02:57.248Z,77.93
2023-03-12T12:05:38.681Z,77.68
2023-03-12T12:08:26.288Z,77.35
2023-03-12T12:10:59.543Z,76.75
2023-03-12T12:13:37.894Z,76.76
2023-03-12T12:16:13.356Z,75.95
2023-03-12T12:18:51.311Z,75.72
2023-03-12T12:21:26.417Z,74.15
2023-03-12T12:24:26.129Z,73.28
2023-03-12T12:27:03.145Z,74.04
2023-03-12T12:29:51.370Z,73.86
2023-03-12T12:32:27.475Z,72.84
2023-03-12T12:35:22.947Z,72.47
2023-03-12T12:38:03.113Z,72.25
2023-03-12T12:40:37.352Z,72.48
2023-03-12T12:43:15.240Z,72.53
2023-03-12T12:45:42.427Z,71.06
2023-03-12T12:48:20.550Z,70.87
2023-03-12T12:50:49.687Z,72.32
2023-03-12T12:53:57.650Z,72.45
2023-03-12T12:56:38.914Z,72.40
2023-03-12T12:59:25.170Z,72.98
2023-03-12T13:01:55.706Z,73.18
2023-03-12T13:04:30.512Z,73.01
2023-03-12T13:07:19.646Z,73.37
2023-03-12T13:09:50.392Z,73.43
2023-03-12T13:12:21.830Z,73.11
2023-03-12T13:14:49.692Z,73.04
2023-03-12T13:17:28.396Z,72.65
2023-03-12T13:20:01.942Z,72.90
2023-03-12T13:22:49.713Z,73.51
2023-03-12T13:25:31.372Z,72.68
2023-03-12T13:28:22.330Z,72.81
2023-03-12T13:30:50.926Z,72.13
2023-03-12T13:33:21.658Z,70.71
2023-03-12T13:36:23.764Z,70.49
2023-03-12T13:38:55.590Z,70.99
2023-03-12T13:41:35.747Z,69.88
2023-03-12T13:44:27.199Z,70.02
2023-03-12T13:47:00.909Z,69.00
2023-03-12T13:49:49.143Z,69.68
2023-03-12T13:52:18.912Z,69.58
2023-03-12T13:54:49.271Z,69.68
2023-03-12T13:57:40.206Z,70.30
2023-03-12T14:00:36.172Z,68.97
2023-03-12T14:03:15.769Z,69.37
2023-03-12T14:06:05.399Z,68.25
2023-03-12T14:08:56.222Z,67.40
2023-03-12T14:11:40.933Z,67.41
2023-03-12T14:14:32.508Z,66.87
2023-03-12T14:17:01.915Z,67.05
2023-03-12T14:19:30.421Z,67.84
2023-03-12T14:22:01.239Z,67.81
2023-03-12T14:24:35.251Z,68.23
2023-03-12T14:27:04.595Z,68.19
2023-03-12T14:29:30.921Z,68.11
2023-03-12T14:32:02.491Z,67.91
2023-03-12T14:34:35.038Z,67.56
2023-03-12T14:37:14.644Z,67.80
2023-03-12T14:39:50.805Z,68.09
2023-03-12T14:42:28.867Z,68.46
2023-03-12T14:45:12.492Z,67.94
2023-03-12T14:47:44.352Z,67.36
2023-03-12T14:50:21.353Z,66.87
2023-03-12T14:52:48.125Z,67.22
2023-03-12T14:55:17.933Z,67.17
2023-03-12T14:57:45.385Z,66.31
2023-03-12T15:00:29.793Z,65.35
2023-03-12T15:03:00.053Z,63.52
2023-03-12T15:05:26.774Z,63.24
2023-03-12T15:07:56.571Z,62.07
2023-03-12T15:10:28.428Z,62.38
2023-03-12T15:13:00.220Z,61.67
2023-03-12T15:15:42.270Z,60.65
2023-03-12T15:18:16.054Z,60.15
2023-03-12T15:20:42.766Z,58.44
2023-03-12T15:23:11.565Z,59.36
2023-03-12T15:25:38.330Z,59.68
2023-03-12T15:28:04.599Z,59.79
2023-03-12T15:30:31.735Z,59.73
2023-03-12T15:33:11.751Z,59.78
2023-03-12T15:35:58.106Z,60.46
2023-03-12T15:38:25.150Z,60.42
2023-03-12T15:40:54.812Z,60.07
2023-03-12T15:43:23.495Z,60.38
2023-03-12T15:46:00.016Z,60.77
2023-03-12T15:48:30.902Z,60.67
2023-03-12T15:50:57.755Z,60.92
2023-03-12T15:53:30.806Z,61.21
2023-03-12T15:56:26.224Z,61.94
2023-03-12T15:59:05.758Z,62.07
2023-03-12T16:01:50.417Z,61.88
2023-03-12T16:04:17.428Z,61.33
2023-03-12T16:06:48.141Z,61.39
2023-03-12T16:09:19.975Z,60.78
2023-03-12T16:11:47.048Z,60.20
2023-03-12T16:14:24.738Z,60.04
2023-03-12T16:16:53.969Z,60.40
2023-03-12T16:19:22.865Z,59.58
2023-03-12T16:21:49.940Z,59.76
2023-03-12T16:24:16.993Z,60.15
2023-03-12T16:26:49.286Z,59.71
2023-03-12T16:29:18.007Z,59.34
2023-03-12T16:31:44.775Z,59.32
2023-03-12T16:34:12.223Z,59.52
2023-03-12T16:36:39.001Z,59.43
2023-03-12T16:39:05.264Z,59.79
2023-03-12T16:41:32.416Z,59.17
2023-03-12T16:43:59.364Z,59.78
2023-03-12T16:46:30.931Z,59.71
2023-03-12T16:48:57.901Z,59.75
2023-03-12T16:51:24.595Z,59.45
2023-03-12T16:54:01.984Z,59.96
2023-03-12T16:56:35.864Z,59.92
2023-03-12T16:59:06.891Z,59.90
2023-03-12T17:01:33.308Z,59.90
2023-03-12T17:04:00.000Z,59.76
2023-03-12T17:06:27.085Z,59.09
2023-03-12T17:08:54.302Z,59.58
2023-03-12T17:11:23.874Z,59.35
2023-03-12T17:13:57.618Z,59.44
2023-03-12T17:16:24.944Z,59.06
2023-03-12T17:18:51.487Z,58.89
2023-03-12T17:21:19.430Z,58.51
2023-03-12T17:23:47.630Z,58.14
2023-03-12T17:26:14.948Z,58.33
2023-03-12T17:28:41.330Z,57.71
2023-03-12T17:31:08.471Z,58.35
2023-03-12T17:33:34.882Z,58.07
2023-03-12T17:36:03.942Z,57.16
2023-03-12T17:38:31.006Z,57.43
2023-03-12T17:40:59.035Z,57.75
2023-03-12T17:43:25.775Z,57.10
2023-03-12T17:45:52.129Z,57.33
2023-03-12T17:48:19.128Z,57.43
2023-03-12T17:50:45.538Z,57.24
2023-03-12T17:53:13.377Z,57.78
2023-03-12T17:55:40.206Z,56.66
2023-03-12T17:58:06.527Z,57.15
2023-03-12T18:00:33.530Z,56.63
2023-03-12T18:03:00.173Z,57.08
2023-03-12T18:05:26.591Z,57.09
2023-03-12T18:07:53.533Z,56.57
2023-03-12T18:10:20.025Z,56.76
2023-03-12T18:12:46.356Z,57.39
2023-03-12T18:15:13.871Z,56.41
2023-03-12T18:17:41.336Z,56.90
2023-03-12T18:20:16.569Z,57.14
2023-03-12T18:22:46.074Z,56.66
2023-03-12T18:25:12.527Z,56.56
2023-03-12T18:27:38.988Z,56.70
2023-03-12T18:30:08.174Z,56.67
2023-03-12T18:32:37.474Z,57.24
2023-03-12T18:35:04.544Z,57.24
2023-03-12T18:37:31.949Z,57.41
2023-03-12T18:39:58.397Z,56.65
2023-03-12T18:42:24.697Z,57.16
2023-03-12T18:44:51.163Z,57.01
2023-03-12T18:47:18.523Z,57.10
2023-03-12T18:49:45.147Z,57.42
2023-03-12T18:52:11.588Z,57.62
2023-03-12T18:54:39.164Z,57.86
2023-03-12T18:57:05.547Z,58.09
2023-03-12T18:59:32.478Z,58.17
2023-03-12T19:01:59.032Z,58.82
2023-03-12T19:04:25.747Z,58.53
2023-03-12T19:06:52.192Z,58.92
2023-03-12T19:09:19.271Z,58.76
2023-03-12T19:11:50.118Z,59.20
2023-03-12T19:14:16.500Z,59.05
2023-03-12T19:16:43.070Z,59.66
2023-03-12T19:19:09.527Z,59.19
2023-03-12T19:21:35.858Z,59.48
2023-03-12T19:24:02.216Z,59.53
2023-03-12T19:26:28.521Z,59.63
2023-03-12T19:28:55.044Z,59.27
2023-03-12T19:31:21.412Z,59.02
2023-03-12T19:33:47.798Z,59.66
2023-03-12T19:36:17.168Z,59.19
2023-03-12T19:38:43.544Z,58.75
2023-03-12T19:41:10.123Z,59.37
2023-03-12T19:43:40.133Z,59.12
2023-03-12T19:46:09.760Z,59.50
2023-03-12T19:48:38.411Z,59.33
2023-03-12T19:51:09.958Z,59.17
2023-03-12T19:53:36.688Z,58.66
2023-03-12T19:56:06.367Z,59.21
2023-03-12T19:58:33.021Z,59.38
2023-03-12T20:01:00.914Z,58.69
2023-03-12T20:03:28.390Z,58.87
2023-03-12T20:05:55.003Z,59.47
2023-03-12T20:08:23.622Z,59.89
2023-03-12T20:10:50.120Z,59.26
2023-03-12T20:13:17.581Z,59.93
2023-03-12T20:15:48.380Z,60.27
2023-03-12T20:18:15.763Z,59.91
2023-03-12T20:20:44.578Z,60.29
2023-03-12T20:23:11.059Z,60.27
2023-03-12T20:25:41.046Z,60.00
2023-03-12T20:28:08.668Z,59.77
2023-03-12T20:30:35.991Z,60.59
2023-03-12T20:33:02.350Z,60.36
2023-03-12T20:35:28.829Z,60.25
2023-03-12T20:37:55.217Z,60.98
2023-03-12T20:40:24.213Z,60.70
2023-03-12T20:42:50.513Z,60.42
2023-03-12T20:45:19.161Z,61.04
2023-03-12T20:47:50.222Z,60.37
2023-03-12T20:50:26.934Z,60.77
2023-03-12T20:52:56.374Z,60.95
2023-03-12T20:55:22.915Z,61.20
2023-03-12T20:57:49.280Z,60.97
2023-03-12T21:00:15.963Z,61.08
2023-03-12T21:02:42.370Z,61.56
2023-03-12T21:05:11.255Z,61.82
2023-03-12T21:07:37.835Z,62.00
2023-03-12T21:10:04.579Z,62.15
2023-03-12T21:12:30.919Z,62.12
2023-03-12T21:15:05.980Z,62.06
2023-03-12T21:17:37.060Z,61.97
2023-03-12T21:20:09.699Z,62.22
2023-03-12T21:22:36.491Z,61.52
2023-03-12T21:25:03.881Z,61.67
2023-03-12T21:27:38.301Z,61.69
2023-03-12T21:30:11.707Z,62.02
2023-03-12T21:32:38.110Z,61.95
2023-03-12T21:35:05.398Z,61.93
2023-03-12T21:37:31.809Z,62.10
2023-03-12T21:40:01.368Z,62.42
2023-03-12T21:42:28.463Z,62.53
2023-03-12T21:44:55.062Z,62.52
2023-03-12T21:47:21.845Z,62.47
2023-03-12T21:49:48.231Z,62.56
2023-03-12T21:52:14.589Z,62.70
2023-03-12T21:54:40.949Z,62.54
2023-03-12T21:57:07.274Z,62.45
2023-03-12T21:59:33.658Z,62.73
2023-03-12T22:02:00.166Z,62.29
2023-03-12T22:04:26.692Z,62.64
2023-03-12T22:06:53.107Z,62.31
2023-03-12T22:09:19.468Z,62.38
2023-03-12T22:11:45.766Z,62.28
2023-03-12T22:14:12.233Z,62.57
2023-03-12T22:16:38.596Z,62.96
2023-03-12T22:19:04.919Z,62.71
2023-03-12T22:21:31.230Z,62.62
2023-03-12T22:23:57.614Z,62.54
2023-03-12T22:26:25.075Z,62.61
2023-03-12T22:28:57.214Z,62.87
2023-03-12T22:31:26.341Z,62.97
2023-03-12T22:33:52.945Z,63.21
2023-03-12T22:36:20.108Z,63.44
2023-03-12T22:38:49.415Z,63.53
2023-03-12T22:41:24.407Z,63.63
2023-03-12T22:43:53.164Z,63.55
2023-03-12T22:46:21.754Z,63.00
2023-03-12T22:48:52.892Z,63.98
2023-03-12T22:51:19.257Z,64.05
2023-03-12T22:53:45.576Z,63.00
2023-03-12T22:56:13.475Z,63.10
2023-03-12T22:58:40.214Z,63.70
2023-03-12T23:01:09.603Z,63.67
2023-03-12T23:03:37.947Z,63.30
2023-03-12T23:06:09.439Z,62.94
2023-03-12T23:08:35.877Z,63.05
2023-03-12T23:11:03.721Z,63.00
2023-03-12T23:13:32.651Z,62.59
2023-03-12T23:16:08.019Z,62.43
2023-03-12T23:18:35.200Z,62.08
2023-03-12T23:21:04.966Z,62.47
2023-03-12T23:23:31.711Z,62.43
2023-03-12T23:26:00.190Z,62.04
2023-03-12T23:28:28.159Z,62.76
2023-03-12T23:31:01.142Z,62.24
2023-03-12T23:33:28.347Z,62.09
2023-03-12T23:36:00.495Z,62.39
2023-03-12T23:38:28.994Z,62.43
2023-03-12T23:41:04.155Z,62.26
2023-03-12T23:43:30.524Z,62.22
2023-03-12T23:45:58.421Z,62.34
2023-03-12T23:48:26.433Z,62.84
2023-03-12T23:50:52.832Z,62.64
2023-03-12T23:53:19.398Z,63.04
2023-03-12T23:55:59.979Z,62.64
2023-03-12T23:58:26.829Z,62.17
